Portada
METAR-TAF:

METAR-TAF

Aeropuertos :

Kirksville Regional Airport

Kirksville, Misuri, Estados Unidos

latitud: 40-05-50N, longitud: 092-32-36W, altitud: 294 m

Observación

El informe se hizo hace 16 minutos, a las 09:55 UTC
Viento 4 kt del norte
Temperatura 6°C
Humedad 61%
Presión 1017 hPa
Visibilidad: 16.1 km
Cielo despejado

METAR: KIRK 310955Z AUTO 36004KT 10SM CLR 06/M01 A3004 RMK AO2 SLP177 T00561006

Hora: 05:11 (10:11 UTC)


TAF: falta

Observaciones y pronósticos meteorológicos de más de 4000 aeropuertos (mensajes METAR y TAF).

Los puntos amarillos y rojos representan las estaciones disponibles.

Ponga el ratón en el punto deseado para ver el nombre de la estación.

Haga clic para ver las observaciones y los pronósticos meteorológicos.

Para cambiar el mapa : haga clic en los botones verdes con una cruz de color negro para hacer un zoom, en el botón verde con un guión para alejar o en las flechas verdes para mapas adyacentes.


METAR-TAF: